PAL240 RPLL-RPVI
Flight info
| Callsign | PAL240 |
|---|---|
| Flight time | 0h 47m |
| Altitude | 31000 |
| Route | VERDE2R VERDE W24 TAPER B472 LAMBO LAMBO2S |
| Aircraft | A321/M-SDE3FGHIRWY/LB1 |
Departure
| Time | 2026-04-15 10:22 |
|---|---|
| Airport | Ninoy Aquino International Airport (RPLL) |
Arrival
| Time | 2026-04-15 11:09 |
|---|---|
| Airport | Iloilo International Airport (RPVI) |
| Time | Latitude | Longitude | Altitude | Speed | Heading |
|---|---|---|---|---|---|
| 2026-04-15 09:59 | 14.50907 | 121.01413 | 68 ft | 0 kts | 330° |
| 2026-04-15 10:08 | 14.50901 | 121.01417 | 60 ft | 4 kts | 330° |
| 2026-04-15 10:09 | 14.50877 | 121.01431 | 60 ft | 4 kts | 330° |
| 2026-04-15 10:09 | 14.50854 | 121.01445 | 59 ft | 4 kts | 323° |
| 2026-04-15 10:09 | 14.50839 | 121.01463 | 65 ft | 4 kts | 272° |
| 2026-04-15 10:09 | 14.50843 | 121.01483 | 60 ft | 2 kts | 240° |
| 2026-04-15 10:10 | 14.50856 | 121.01506 | 65 ft | 4 kts | 240° |
| 2026-04-15 10:10 | 14.50866 | 121.01523 | 59 ft | 0 kts | 240° |
| 2026-04-15 10:12 | 14.50866 | 121.01522 | 59 ft | 0 kts | 240° |
| 2026-04-15 10:12 | 14.50844 | 121.01484 | 60 ft | 12 kts | 239° |
| 2026-04-15 10:12 | 14.50791 | 121.01389 | 67 ft | 17 kts | 240° |
| 2026-04-15 10:12 | 14.50739 | 121.01318 | 66 ft | 12 kts | 205° |
| 2026-04-15 10:13 | 14.50675 | 121.01317 | 65 ft | 8 kts | 204° |
| 2026-04-15 10:13 | 14.50649 | 121.01284 | 62 ft | 10 kts | 241° |
| 2026-04-15 10:13 | 14.50591 | 121.01179 | 64 ft | 15 kts | 240° |
| 2026-04-15 10:13 | 14.50554 | 121.01114 | 62 ft | 15 kts | 239° |
| 2026-04-15 10:14 | 14.50515 | 121.01043 | 69 ft | 12 kts | 240° |
| 2026-04-15 10:14 | 14.50470 | 121.00962 | 63 ft | 13 kts | 240° |
| 2026-04-15 10:14 | 14.50434 | 121.00897 | 64 ft | 12 kts | 240° |
| 2026-04-15 10:14 | 14.50384 | 121.00808 | 64 ft | 16 kts | 240° |
| 2026-04-15 10:15 | 14.50322 | 121.00696 | 64 ft | 20 kts | 239° |
| 2026-04-15 10:15 | 14.50262 | 121.00588 | 68 ft | 16 kts | 240° |
| 2026-04-15 10:15 | 14.50202 | 121.00479 | 65 ft | 19 kts | 240° |
| 2026-04-15 10:15 | 14.50161 | 121.00406 | 64 ft | 8 kts | 240° |
| 2026-04-15 10:16 | 14.50127 | 121.00346 | 64 ft | 11 kts | 240° |
| 2026-04-15 10:16 | 14.50083 | 121.00267 | 63 ft | 15 kts | 240° |
| 2026-04-15 10:16 | 14.50053 | 121.00214 | 63 ft | 9 kts | 240° |
| 2026-04-15 10:16 | 14.50017 | 121.00149 | 64 ft | 12 kts | 240° |
| 2026-04-15 10:17 | 14.49974 | 121.00071 | 63 ft | 14 kts | 240° |
| 2026-04-15 10:17 | 14.49959 | 121.00045 | 64 ft | 0 kts | 240° |
| 2026-04-15 10:17 | 14.49954 | 121.00037 | 60 ft | 4 kts | 239° |
| 2026-04-15 10:17 | 14.49935 | 121.00003 | 65 ft | 7 kts | 240° |
| 2026-04-15 10:18 | 14.49890 | 120.99965 | 69 ft | 9 kts | 185° |
| 2026-04-15 10:18 | 14.49877 | 120.99968 | 63 ft | 0 kts | 163° |
| 2026-04-15 10:19 | 14.49872 | 120.99969 | 64 ft | 4 kts | 161° |
| 2026-04-15 10:19 | 14.49814 | 121.00006 | 64 ft | 15 kts | 127° |
| 2026-04-15 10:20 | 14.49816 | 121.00065 | 67 ft | 3 kts | 57° |
| 2026-04-15 10:20 | 14.49817 | 121.00067 | 67 ft | 0 kts | 58° |
| 2026-04-15 10:21 | 14.49818 | 121.00068 | 68 ft | 2 kts | 58° |
| 2026-04-15 10:21 | 14.49914 | 121.00241 | 58 ft | 75 kts | 60° |
| 2026-04-15 10:21 | 14.50328 | 121.00979 | 93 ft | 155 kts | 61° |
| 2026-04-15 10:22 | 14.50867 | 121.01941 | 888 ft | 155 kts | 62° |
| 2026-04-15 10:22 | 14.51411 | 121.02901 | 1802 ft | 156 kts | 62° |
| 2026-04-15 10:22 | 14.51981 | 121.03918 | 2326 ft | 174 kts | 63° |
| 2026-04-15 10:22 | 14.52623 | 121.05066 | 2686 ft | 195 kts | 61° |
| 2026-04-15 10:23 | 14.53343 | 121.06346 | 2952 ft | 217 kts | 60° |
| 2026-04-15 10:23 | 14.54146 | 121.07771 | 3154 ft | 245 kts | 60° |
| 2026-04-15 10:23 | 14.55045 | 121.09362 | 3824 ft | 262 kts | 60° |
| 2026-04-15 10:23 | 14.55974 | 121.11006 | 4839 ft | 268 kts | 60° |
| 2026-04-15 10:24 | 14.56544 | 121.12853 | 5813 ft | 276 kts | 85° |
| 2026-04-15 10:24 | 14.56238 | 121.14827 | 6773 ft | 286 kts | 111° |
| 2026-04-15 10:24 | 14.55087 | 121.16508 | 7753 ft | 292 kts | 138° |
| 2026-04-15 10:24 | 14.53426 | 121.17731 | 8777 ft | 294 kts | 146° |
| 2026-04-15 10:25 | 14.51559 | 121.18614 | 9751 ft | 299 kts | 163° |
| 2026-04-15 10:25 | 14.49482 | 121.19121 | 10320 ft | 318 kts | 167° |
| 2026-04-15 10:25 | 14.47261 | 121.19609 | 10843 ft | 333 kts | 167° |
| 2026-04-15 10:25 | 14.44962 | 121.20101 | 11601 ft | 340 kts | 167° |
| 2026-04-15 10:26 | 14.42631 | 121.20593 | 12401 ft | 345 kts | 167° |
| 2026-04-15 10:26 | 14.40258 | 121.21086 | 13204 ft | 350 kts | 167° |
| 2026-04-15 10:26 | 14.37820 | 121.21369 | 13916 ft | 358 kts | 181° |
| 2026-04-15 10:26 | 14.35340 | 121.20977 | 14598 ft | 364 kts | 190° |
| 2026-04-15 10:27 | 14.32845 | 121.20462 | 15320 ft | 367 kts | 190° |
| 2026-04-15 10:27 | 14.30333 | 121.19927 | 16030 ft | 371 kts | 191° |
| 2026-04-15 10:27 | 14.27782 | 121.19380 | 16758 ft | 375 kts | 191° |
| 2026-04-15 10:27 | 14.25210 | 121.18832 | 17472 ft | 380 kts | 191° |
| 2026-04-15 10:28 | 14.22613 | 121.18282 | 18191 ft | 384 kts | 191° |
| 2026-04-15 10:28 | 14.19982 | 121.17726 | 18825 ft | 388 kts | 191° |
| 2026-04-15 10:28 | 14.17325 | 121.17166 | 19471 ft | 391 kts | 191° |
| 2026-04-15 10:28 | 14.14645 | 121.16605 | 20110 ft | 395 kts | 191° |
| 2026-04-15 10:29 | 14.11944 | 121.16042 | 20768 ft | 398 kts | 191° |
| 2026-04-15 10:29 | 14.09210 | 121.15474 | 21417 ft | 402 kts | 191° |
| 2026-04-15 10:29 | 14.06460 | 121.14900 | 22071 ft | 406 kts | 191° |
| 2026-04-15 10:29 | 14.03681 | 121.14317 | 22723 ft | 409 kts | 191° |
| 2026-04-15 10:30 | 14.00880 | 121.13727 | 23363 ft | 413 kts | 191° |
| 2026-04-15 10:30 | 13.98051 | 121.13132 | 23914 ft | 417 kts | 191° |
| 2026-04-15 10:30 | 13.95231 | 121.12541 | 24464 ft | 420 kts | 191° |
| 2026-04-15 10:30 | 13.92363 | 121.11942 | 25016 ft | 422 kts | 190° |
| 2026-04-15 10:31 | 13.89470 | 121.11340 | 25557 ft | 425 kts | 190° |
| 2026-04-15 10:31 | 13.86556 | 121.10732 | 26079 ft | 428 kts | 191° |
| 2026-04-15 10:31 | 13.83632 | 121.10120 | 26611 ft | 430 kts | 191° |
| 2026-04-15 10:31 | 13.80690 | 121.09506 | 27125 ft | 433 kts | 190° |
| 2026-04-15 10:32 | 13.77725 | 121.08886 | 27648 ft | 435 kts | 191° |
| 2026-04-15 10:32 | 13.74747 | 121.08262 | 28159 ft | 438 kts | 191° |
| 2026-04-15 10:32 | 13.71749 | 121.07635 | 28685 ft | 440 kts | 191° |
| 2026-04-15 10:32 | 13.68742 | 121.07009 | 29170 ft | 443 kts | 191° |
| 2026-04-15 10:33 | 13.65716 | 121.06377 | 29671 ft | 445 kts | 191° |
| 2026-04-15 10:33 | 13.62664 | 121.05740 | 30134 ft | 448 kts | 191° |
| 2026-04-15 10:33 | 13.59606 | 121.05100 | 30538 ft | 451 kts | 191° |
| 2026-04-15 10:33 | 13.56515 | 121.04453 | 30810 ft | 452 kts | 190° |
| 2026-04-15 10:34 | 13.53406 | 121.04097 | 30879 ft | 444 kts | 179° |
| 2026-04-15 10:34 | 13.50408 | 121.04391 | 30899 ft | 424 kts | 167° |
| 2026-04-15 10:34 | 13.47661 | 121.05302 | 30900 ft | 407 kts | 154° |
| 2026-04-15 10:35 | 13.42968 | 121.08370 | 30902 ft | 398 kts | 144° |
| 2026-04-15 10:35 | 13.38405 | 121.11596 | 30904 ft | 397 kts | 145° |
| 2026-04-15 10:36 | 13.33845 | 121.14805 | 30904 ft | 397 kts | 145° |
| 2026-04-15 10:36 | 13.29275 | 121.18002 | 30911 ft | 398 kts | 145° |
| 2026-04-15 10:37 | 13.24730 | 121.21186 | 30912 ft | 398 kts | 145° |
| 2026-04-15 10:37 | 13.20130 | 121.24412 | 30915 ft | 398 kts | 145° |
| 2026-04-15 10:38 | 13.15559 | 121.27621 | 30922 ft | 398 kts | 145° |
| 2026-04-15 10:38 | 13.10986 | 121.30829 | 30926 ft | 398 kts | 145° |
| 2026-04-15 10:39 | 13.06400 | 121.34039 | 30928 ft | 398 kts | 145° |
| 2026-04-15 10:39 | 13.01815 | 121.37247 | 30927 ft | 398 kts | 145° |
| 2026-04-15 10:40 | 12.97264 | 121.40424 | 30929 ft | 398 kts | 145° |
| 2026-04-15 10:40 | 12.92661 | 121.43645 | 30924 ft | 398 kts | 145° |
| 2026-04-15 10:41 | 12.88086 | 121.46849 | 30926 ft | 398 kts | 145° |
| 2026-04-15 10:41 | 12.83543 | 121.50023 | 30923 ft | 398 kts | 145° |
| 2026-04-15 10:42 | 12.78968 | 121.53216 | 30922 ft | 398 kts | 145° |
| 2026-04-15 10:42 | 12.74395 | 121.56403 | 30917 ft | 397 kts | 145° |
| 2026-04-15 10:43 | 12.69825 | 121.59590 | 30917 ft | 397 kts | 145° |
| 2026-04-15 10:43 | 12.65257 | 121.62782 | 30913 ft | 397 kts | 145° |
| 2026-04-15 10:44 | 12.60685 | 121.65966 | 30915 ft | 397 kts | 145° |
| 2026-04-15 10:44 | 12.56117 | 121.69144 | 30909 ft | 397 kts | 145° |
| 2026-04-15 10:45 | 12.51556 | 121.72324 | 30907 ft | 396 kts | 145° |
| 2026-04-15 10:45 | 12.46996 | 121.75503 | 30908 ft | 396 kts | 145° |
| 2026-04-15 10:46 | 12.42442 | 121.78676 | 30909 ft | 396 kts | 145° |
| 2026-04-15 10:46 | 12.37880 | 121.81846 | 30906 ft | 396 kts | 146° |
| 2026-04-15 10:47 | 12.32955 | 121.84335 | 30903 ft | 396 kts | 156° |
| 2026-04-15 10:47 | 12.27880 | 121.86545 | 30906 ft | 396 kts | 156° |
| 2026-04-15 10:48 | 12.22808 | 121.88760 | 30651 ft | 396 kts | 156° |
| 2026-04-15 10:48 | 12.20278 | 121.89865 | 30402 ft | 392 kts | 156° |
| 2026-04-15 10:48 | 12.17784 | 121.90955 | 29996 ft | 391 kts | 156° |
| 2026-04-15 10:48 | 12.15316 | 121.92034 | 29530 ft | 390 kts | 156° |
| 2026-04-15 10:49 | 12.13640 | 121.92767 | 29234 ft | 388 kts | 156° |
| 2026-04-15 10:49 | 12.11159 | 121.93849 | 28802 ft | 386 kts | 156° |
| 2026-04-15 10:49 | 12.08696 | 121.94921 | 28396 ft | 384 kts | 156° |
| 2026-04-15 10:49 | 12.06244 | 121.95987 | 27981 ft | 381 kts | 156° |
| 2026-04-15 10:50 | 12.02995 | 121.97400 | 27427 ft | 378 kts | 156° |
| 2026-04-15 10:50 | 12.00584 | 121.98449 | 27023 ft | 375 kts | 156° |
| 2026-04-15 10:50 | 11.98198 | 121.99488 | 26616 ft | 372 kts | 156° |
| 2026-04-15 10:50 | 11.95822 | 122.00523 | 26208 ft | 369 kts | 155° |
| 2026-04-15 10:51 | 11.94264 | 122.01202 | 25943 ft | 368 kts | 155° |
| 2026-04-15 10:51 | 11.91917 | 122.02227 | 25529 ft | 365 kts | 155° |
| 2026-04-15 10:51 | 11.88829 | 122.03576 | 24971 ft | 363 kts | 155° |
| 2026-04-15 10:51 | 11.87265 | 122.04258 | 24685 ft | 363 kts | 155° |
| 2026-04-15 10:52 | 11.84944 | 122.05267 | 24239 ft | 362 kts | 155° |
| 2026-04-15 10:52 | 11.81875 | 122.06600 | 23670 ft | 362 kts | 155° |
| 2026-04-15 10:52 | 11.80309 | 122.07280 | 23339 ft | 362 kts | 155° |
| 2026-04-15 10:52 | 11.77997 | 122.08284 | 22850 ft | 361 kts | 155° |
| 2026-04-15 10:53 | 11.75697 | 122.09282 | 22405 ft | 358 kts | 155° |
| 2026-04-15 10:53 | 11.73410 | 122.10275 | 21950 ft | 356 kts | 155° |
| 2026-04-15 10:53 | 11.71142 | 122.11260 | 21500 ft | 353 kts | 155° |
| 2026-04-15 10:53 | 11.68891 | 122.12236 | 21058 ft | 350 kts | 155° |
| 2026-04-15 10:54 | 11.66654 | 122.13208 | 20609 ft | 348 kts | 155° |
| 2026-04-15 10:54 | 11.64430 | 122.14175 | 20166 ft | 346 kts | 155° |
| 2026-04-15 10:54 | 11.62214 | 122.15139 | 19725 ft | 345 kts | 155° |
| 2026-04-15 10:54 | 11.60005 | 122.16101 | 19276 ft | 345 kts | 155° |
| 2026-04-15 10:55 | 11.57803 | 122.17060 | 18833 ft | 344 kts | 155° |
| 2026-04-15 10:55 | 11.55604 | 122.18015 | 18388 ft | 342 kts | 155° |
| 2026-04-15 10:55 | 11.53417 | 122.18964 | 17914 ft | 342 kts | 155° |
| 2026-04-15 10:55 | 11.51232 | 122.19911 | 17460 ft | 339 kts | 155° |
| 2026-04-15 10:56 | 11.49076 | 122.20848 | 17018 ft | 335 kts | 155° |
| 2026-04-15 10:56 | 11.46936 | 122.21776 | 16588 ft | 333 kts | 155° |
| 2026-04-15 10:56 | 11.44818 | 122.22690 | 16157 ft | 331 kts | 155° |
| 2026-04-15 10:56 | 11.42700 | 122.23606 | 15726 ft | 329 kts | 155° |
| 2026-04-15 10:57 | 11.40592 | 122.24520 | 15312 ft | 327 kts | 155° |
| 2026-04-15 10:57 | 11.36424 | 122.26338 | 14460 ft | 325 kts | 155° |
| 2026-04-15 10:57 | 11.34353 | 122.27240 | 14045 ft | 324 kts | 155° |
| 2026-04-15 10:58 | 11.32280 | 122.28137 | 13618 ft | 323 kts | 155° |
| 2026-04-15 10:58 | 11.30243 | 122.29018 | 13174 ft | 321 kts | 155° |
| 2026-04-15 10:58 | 11.28199 | 122.29900 | 12763 ft | 318 kts | 155° |
| 2026-04-15 10:58 | 11.26166 | 122.30778 | 12347 ft | 316 kts | 155° |
| 2026-04-15 10:59 | 11.24156 | 122.31648 | 11941 ft | 313 kts | 155° |
| 2026-04-15 10:59 | 11.22159 | 122.32513 | 11529 ft | 311 kts | 156° |
| 2026-04-15 10:59 | 11.20174 | 122.33372 | 11132 ft | 309 kts | 155° |
| 2026-04-15 10:59 | 11.18357 | 122.34488 | 10787 ft | 303 kts | 137° |
| 2026-04-15 11:00 | 11.17037 | 122.36121 | 10418 ft | 298 kts | 117° |
| 2026-04-15 11:00 | 11.16339 | 122.38080 | 10021 ft | 294 kts | 98° |
| 2026-04-15 11:00 | 11.16242 | 122.40139 | 9606 ft | 291 kts | 88° |
| 2026-04-15 11:00 | 11.16262 | 122.42194 | 9194 ft | 289 kts | 88° |
| 2026-04-15 11:01 | 11.16279 | 122.44233 | 8803 ft | 287 kts | 88° |
| 2026-04-15 11:01 | 11.16292 | 122.46262 | 8413 ft | 286 kts | 88° |
| 2026-04-15 11:01 | 11.16305 | 122.48280 | 8022 ft | 284 kts | 88° |
| 2026-04-15 11:01 | 11.16319 | 122.50290 | 7632 ft | 283 kts | 88° |
| 2026-04-15 11:02 | 11.16250 | 122.52290 | 7241 ft | 283 kts | 97° |
| 2026-04-15 11:02 | 11.15727 | 122.54224 | 6832 ft | 285 kts | 109° |
| 2026-04-15 11:02 | 11.15027 | 122.56076 | 6669 ft | 274 kts | 109° |
| 2026-04-15 11:02 | 11.14237 | 122.57832 | 6240 ft | 280 kts | 124° |
| 2026-04-15 11:03 | 11.12700 | 122.59107 | 5683 ft | 288 kts | 156° |
| 2026-04-15 11:03 | 11.10773 | 122.59394 | 5386 ft | 285 kts | 187° |
| 2026-04-15 11:03 | 11.08883 | 122.58845 | 5046 ft | 283 kts | 200° |
| 2026-04-15 11:03 | 11.07046 | 122.58137 | 4699 ft | 280 kts | 200° |
| 2026-04-15 11:04 | 11.05249 | 122.57457 | 4329 ft | 270 kts | 200° |
| 2026-04-15 11:04 | 11.03536 | 122.56823 | 4007 ft | 253 kts | 199° |
| 2026-04-15 11:04 | 11.01928 | 122.56229 | 3678 ft | 239 kts | 199° |
| 2026-04-15 11:04 | 11.00417 | 122.55670 | 3391 ft | 221 kts | 199° |
| 2026-04-15 11:05 | 10.99018 | 122.55152 | 3108 ft | 207 kts | 199° |
| 2026-04-15 11:05 | 10.97709 | 122.54667 | 2856 ft | 192 kts | 199° |
| 2026-04-15 11:05 | 10.96512 | 122.54224 | 2614 ft | 177 kts | 199° |
| 2026-04-15 11:05 | 10.95393 | 122.53810 | 2394 ft | 166 kts | 199° |
| 2026-04-15 11:06 | 10.94331 | 122.53417 | 2180 ft | 160 kts | 198° |
| 2026-04-15 11:06 | 10.93300 | 122.53036 | 1997 ft | 152 kts | 200° |
| 2026-04-15 11:06 | 10.92326 | 122.52675 | 1795 ft | 148 kts | 200° |
| 2026-04-15 11:06 | 10.91374 | 122.52323 | 1610 ft | 143 kts | 200° |
| 2026-04-15 11:07 | 10.90450 | 122.51981 | 1419 ft | 140 kts | 199° |
| 2026-04-15 11:07 | 10.89542 | 122.51645 | 1237 ft | 138 kts | 199° |
| 2026-04-15 11:07 | 10.88631 | 122.51308 | 1063 ft | 140 kts | 200° |
| 2026-04-15 11:07 | 10.87711 | 122.50968 | 878 ft | 140 kts | 200° |
| 2026-04-15 11:08 | 10.86802 | 122.50632 | 705 ft | 138 kts | 200° |
| 2026-04-15 11:08 | 10.85897 | 122.50301 | 534 ft | 139 kts | 201° |
| 2026-04-15 11:08 | 10.84983 | 122.49980 | 354 ft | 139 kts | 201° |
| 2026-04-15 11:08 | 10.84090 | 122.49632 | 159 ft | 135 kts | 200° |
| 2026-04-15 11:09 | 10.83329 | 122.49345 | 141 ft | 86 kts | 200° |
| 2026-04-15 11:09 | 10.83047 | 122.49240 | 141 ft | 14 kts | 200° |
| 2026-04-15 11:09 | 10.82916 | 122.49190 | 141 ft | 26 kts | 200° |
| 2026-04-15 11:09 | 10.82711 | 122.49114 | 141 ft | 37 kts | 200° |
| 2026-04-15 11:10 | 10.82521 | 122.49045 | 142 ft | 26 kts | 200° |
| 2026-04-15 11:10 | 10.82364 | 122.48986 | 143 ft | 25 kts | 202° |
| 2026-04-15 11:10 | 10.82261 | 122.48963 | 143 ft | 6 kts | 111° |
| 2026-04-15 11:10 | 10.82291 | 122.48979 | 143 ft | 9 kts | 2° |
| 2026-04-15 11:11 | 10.82374 | 122.48991 | 143 ft | 16 kts | 17° |
| 2026-04-15 11:11 | 10.82518 | 122.49044 | 142 ft | 28 kts | 20° |
| 2026-04-15 11:11 | 10.82737 | 122.49125 | 141 ft | 39 kts | 20° |
| 2026-04-15 11:11 | 10.82983 | 122.49215 | 141 ft | 30 kts | 19° |
| 2026-04-15 11:12 | 10.83090 | 122.49294 | 142 ft | 17 kts | 85° |
| 2026-04-15 11:12 | 10.83050 | 122.49424 | 140 ft | 22 kts | 109° |
| 2026-04-15 11:12 | 10.83056 | 122.49531 | 140 ft | 15 kts | 37° |
| 2026-04-15 11:12 | 10.83077 | 122.49542 | 139 ft | 2 kts | 15° |
| 2026-04-15 11:13 | 10.83102 | 122.49552 | 140 ft | 6 kts | 22° |
| 2026-04-15 11:13 | 10.83134 | 122.49582 | 140 ft | 5 kts | 81° |
| 2026-04-15 11:13 | 10.83122 | 122.49629 | 140 ft | 8 kts | 110° |
| 2026-04-15 11:13 | 10.83116 | 122.49646 | 140 ft | 0 kts | 110° |